Potsdam, NY (13676)

11:11 AM EST on December 10, 2016 (GMT -0500)
| | Change Station

Elev -9999 ft 0.00 °N, 0.00 °E | Updated 6 minutes ago

Overcast
Overcast
70 °F
Feels Like 70 °F
N
4
Wind Variable Wind from ESE
Gusts mph

Today
High -- | Low -- °F
--% Chance of Precip.
Yesterday
High -- | Low -- °F
Precip. -- in
Pressure 30.40 in
Visibility 10.0 miles
Clouds Overcast 5500 ft
Dew Point 56 °F
Humidity 61%
Rainfall --
Snow Depth Not available.
7:26 AM 4:19 PM
Waxing Gibbous, 84% visible
METAR KMSS 101553Z AUTO 24007KT 10SM OVC055 M06/M11 A3037 RMK AO2 SLP292 T10611111
Pressure 30.40 in
Visibility 10.0 miles
Clouds Overcast 5500 ft
Dew Point 56 °F
Humidity 61%
Rainfall --
Snow Depth Not available.
7:26 AM 4:19 PM
Waxing Gibbous, 84% visible
METAR KMSS 101553Z AUTO 24007KT 10SM OVC055 M06/M11 A3037 RMK AO2 SLP292 T10611111

10-Day Weather Forecast

Almanac

Astronomy

Dec. 10, 2016 Rise Set
Actual Time
Civil Twilight
Nautical Twilight
Astronomical Twilight
Moon
Length of Visible Light
Length of Day
Tomorrow will be .
, % of the Moon is Illuminated

Today's Extremes

State Highs State Lows

Community

WunderPhotos

Upload Photos

1,956,569 photos uploaded!

WunderBlog® & News

Nearby

Air Quality

  Air Quality AQ Index Pollutant
Not available.

Snow Depth

Station Depth Elevation

Earthquake Activity

City Distance Mag. Time & Date
Minimum magnitude displayed is 2.5.

Coastal Water Temperatures

Place Temperature

Stations

Nearby Weather Stations

Station Location Temp. Windchill Dew Point Humidity Wind Precip. Elev Updated Type
                   

Watches & Warnings

There are currently no watches in effect.